Time;durP1;ratioP1;P1;durP2;ratioP2;P2;SDS_P1;SDS_P2;PMS_P1;PMS_P2;Temp;Humidity;BMP_temperature;BMP_pressure;BME280_temperature;BME280_humidity;BME280_pressure;Samples;Min_cycle;Max_cycle;Signal;HPM_P1;HPM_P2
2021/09/27 00:04:24;;;;;;;42.75;31.48;;;22.00;53.30;;;;;;31254623;28;20537;-49
2021/09/27 00:19:26;;;;;;;25.35;20.38;;;22.10;53.40;;;;;;31259568;28;20041;-50
2021/09/27 00:34:28;;;;;;;15.63;11.50;;;22.00;53.40;;;;;;31257270;28;20049;-48
2021/09/27 00:49:31;;;;;;;9.00;7.18;;;21.90;53.60;;;;;;31253076;28;20077;-53
2021/09/27 01:04:33;;;;;;;5.72;4.95;;;21.90;53.80;;;;;;31185115;28;20110;-43
2021/09/27 01:20:03;;;;;;;3.88;2.75;;;21.90;53.80;;;;;;31131048;28;20096;-40
2021/09/27 01:35:31;;;;;;;1.97;1.80;;;21.90;53.80;;;;;;31241139;28;20092;-52
2021/09/27 01:50:53;;;;;;;1.52;1.42;;;22.00;53.80;;;;;;31176743;28;20054;-44
2021/09/27 02:06:01;;;;;;;1.27;1.17;;;22.00;53.70;;;;;;31149580;28;20062;-52
2021/09/27 02:21:11;;;;;;;1.20;0.93;;;22.00;53.60;;;;;;31150763;28;20061;-51
2021/09/27 02:36:36;;;;;;;0.90;0.90;;;22.00;53.60;;;;;;31148564;28;20173;-52
2021/09/27 02:51:41;;;;;;;0.77;0.70;;;22.00;53.70;;;;;;31144438;28;20050;-42
2021/09/27 03:06:59;;;;;;;0.63;0.52;;;22.00;54.10;;;;;;31140947;28;20113;-44
2021/09/27 03:22:23;;;;;;;0.70;0.70;;;22.00;54.40;;;;;;31139795;28;20054;-49
2021/09/27 03:38:11;;;;;;;0.95;0.73;;;22.00;54.50;;;;;;31134914;28;20098;-53
2021/09/27 03:53:42;;;;;;;1.45;0.77;;;22.00;54.40;;;;;;31134545;28;20115;-52
2021/09/27 04:09:10;;;;;;;2.78;0.70;;;22.00;54.20;;;;;;31133166;28;20114;-43
2021/09/27 04:24:35;;;;;;;14.68;5.53;;;22.00;54.30;;;;;;31130150;28;20074;-51
2021/09/27 04:39:40;;;;;;;4.40;2.70;;;21.90;55.70;;;;;;31129304;28;20061;-52
2021/09/27 04:54:57;;;;;;;32.85;8.73;;;21.90;55.40;;;;;;31133393;28;20046;-40
2021/09/27 05:10:25;;;;;;;171.90;119.20;;;21.90;56.10;;;;;;31191972;28;20173;-56
2021/09/27 05:25:51;;;;;;;72.03;40.10;;;21.70;55.80;;;;;;31253989;28;20057;-48
2021/09/27 05:41:05;;;;;;;61.17;34.97;;;21.70;56.00;;;;;;31276680;28;20069;-43
2021/09/27 05:56:26;;;;;;;62.40;33.90;;;21.70;56.40;;;;;;31270374;28;20062;-43
2021/09/27 06:11:31;;;;;;;50.50;29.90;;;21.60;57.50;;;;;;31263882;28;20057;-43
2021/09/27 06:26:44;;;;;;;46.05;28.85;;;21.60;58.00;;;;;;31248265;28;20061;-46
2021/09/27 06:41:48;;;;;;;41.67;24.15;;;21.60;58.00;;;;;;31246978;28;20054;-44
2021/09/27 06:56:50;;;;;;;31.23;21.23;;;21.70;57.00;;;;;;31138868;28;20050;-45
2021/09/27 07:11:52;;;;;;;31.08;20.83;;;22.00;55.80;;;;;;31138025;28;20038;-44
2021/09/27 07:26:54;;;;;;;31.52;19.48;;;22.10;55.60;;;;;;31147971;28;20101;-50
2021/09/27 07:41:56;;;;;;;34.97;24.90;;;22.10;55.40;;;;;;31262716;28;20118;-48
2021/09/27 07:56:58;;;;;;;27.20;18.67;;;21.90;56.70;;;;;;31261240;28;20084;-52
2021/09/27 08:12:00;;;;;;;23.88;16.85;;;21.80;55.60;;;;;;31259128;28;20046;-47
2021/09/27 08:27:03;;;;;;;25.40;16.02;;;21.80;55.10;;;;;;31259151;28;20100;-51
2021/09/27 08:42:10;;;;;;;73.07;57.45;;;21.80;55.50;;;;;;31256148;28;20069;-46
2021/09/27 08:57:44;;;;;;;56.65;47.10;;;21.80;54.70;;;;;;31256339;28;20046;-51
2021/09/27 09:13:09;;;;;;;42.05;35.08;;;21.90;55.20;;;;;;31254198;28;20063;-46
2021/09/27 09:28:11;;;;;;;45.95;37.50;;;21.80;56.90;;;;;;31254763;28;20049;-50
2021/09/27 09:43:28;;;;;;;36.33;29.75;;;21.80;56.60;;;;;;31251633;28;20057;-48
2021/09/27 09:58:50;;;;;;;49.58;32.97;;;21.80;56.10;;;;;;31245481;28;20077;-49
2021/09/27 10:13:54;;;;;;;35.95;28.00;;;21.80;56.40;;;;;;31223221;28;20043;-48
2021/09/27 10:29:03;;;;;;;35.45;24.90;;;21.80;56.60;;;;;;31142927;28;20098;-50
2021/09/27 10:44:12;;;;;;;65.67;51.43;;;21.80;56.20;;;;;;31153963;28;20053;-40
2021/09/27 10:59:41;;;;;;;58.00;41.50;;;21.90;56.80;;;;;;31267530;28;20054;-47
2021/09/27 11:15:30;;;;;;;48.33;34.85;;;21.90;57.00;;;;;;31162922;28;20042;-50
2021/09/27 11:30:38;;;;;;;38.92;29.42;;;21.80;56.90;;;;;;31135520;28;20054;-53
2021/09/27 11:45:43;;;;;;;29.48;22.50;;;21.90;57.10;;;;;;31133952;28;20534;-55
2021/09/27 12:01:30;;;;;;;35.22;26.92;;;21.80;56.70;;;;;;31139435;28;20042;-42
2021/09/27 12:16:38;;;;;;;26.75;19.85;;;21.90;56.20;;;;;;31128658;28;20054;-50
2021/09/27 12:32:05;;;;;;;21.42;17.05;;;21.90;56.10;;;;;;31247999;28;20072;-54
2021/09/27 12:47:10;;;;;;;20.88;14.93;;;21.90;55.60;;;;;;31254901;28;20056;-53
2021/09/27 13:02:13;;;;;;;14.80;10.82;;;21.80;56.00;;;;;;31252526;28;20046;-44
2021/09/27 13:17:23;;;;;;;17.45;10.43;;;21.80;54.50;;;;;;31127405;28;20050;-54
2021/09/27 13:32:28;;;;;;;48.03;14.23;;;21.80;54.80;;;;;;31177975;28;20053;-59
2021/09/27 13:47:30;;;;;;;31.63;11.48;;;21.90;56.10;;;;;;31250975;28;20078;-47
2021/09/27 14:02:32;;;;;;;18.25;9.93;;;21.80;55.60;;;;;;31265877;28;20060;-54
2021/09/27 14:17:35;;;;;;;15.38;9.35;;;21.80;55.60;;;;;;31266777;28;20084;-42
2021/09/27 14:32:37;;;;;;;11.00;7.97;;;21.70;55.60;;;;;;31268179;28;20042;-50
2021/09/27 14:47:41;;;;;;;12.93;8.65;;;21.90;55.10;;;;;;31269906;28;20058;-45
2021/09/27 15:02:43;;;;;;;13.70;8.27;;;21.90;55.10;;;;;;31259208;28;20072;-57
2021/09/27 15:17:45;;;;;;;14.23;8.13;;;22.00;55.50;;;;;;31193240;28;20049;-47
2021/09/27 15:32:49;;;;;;;15.85;7.35;;;22.00;56.50;;;;;;31242128;28;20102;-60
2021/09/27 15:47:51;;;;;;;16.95;7.55;;;22.10;57.30;;;;;;31258124;28;20102;-58
2021/09/27 16:02:53;;;;;;;41.47;9.65;;;22.00;57.70;;;;;;31252507;28;20046;-48
2021/09/27 16:17:55;;;;;;;17.83;9.45;;;22.00;59.10;;;;;;31247763;28;20057;-46
2021/09/27 16:32:58;;;;;;;20.83;11.65;;;22.00;57.80;;;;;;31248745;28;20065;-51
2021/09/27 16:48:01;;;;;;;27.13;14.75;;;22.20;56.80;;;;;;31239648;28;20096;-49
2021/09/27 17:03:03;;;;;;;22.80;13.63;;;22.20;57.50;;;;;;31242811;28;20045;-51
2021/09/27 17:18:05;;;;;;;26.45;13.82;;;22.20;57.30;;;;;;31252334;28;20046;-46
2021/09/27 17:33:10;;;;;;;19.23;11.48;;;22.30;57.80;;;;;;31277367;28;20038;-52
2021/09/27 17:48:12;;;;;;;22.60;12.40;;;22.30;57.50;;;;;;31265666;28;20074;-50
2021/09/27 18:03:16;;;;;;;27.25;11.10;;;22.30;58.90;;;;;;31259475;28;20053;-49
2021/09/27 18:18:18;;;;;;;18.20;9.20;;;22.30;59.30;;;;;;31257694;28;20046;-44
2021/09/27 18:33:21;;;;;;;20.17;7.60;;;22.30;58.70;;;;;;31255110;28;20038;-58
2021/09/27 18:48:23;;;;;;;15.20;6.95;;;22.20;59.20;;;;;;31260844;28;20054;-44
2021/09/27 19:03:25;;;;;;;17.02;8.90;;;22.20;59.10;;;;;;31263651;28;20120;-43
2021/09/27 19:18:28;;;;;;;14.98;7.13;;;22.20;59.10;;;;;;31274687;28;20042;-43
2021/09/27 19:33:31;;;;;;;12.13;6.50;;;22.40;57.80;;;;;;31255452;28;20068;-53
2021/09/27 19:48:33;;;;;;;10.48;5.57;;;22.40;57.30;;;;;;31252390;28;20121;-43
2021/09/27 20:03:35;;;;;;;7.05;5.00;;;22.40;57.20;;;;;;31270026;28;20073;-46
2021/09/27 20:18:37;;;;;;;16.05;7.20;;;22.50;57.10;;;;;;31251520;28;20053;-51
2021/09/27 20:33:41;;;;;;;24.27;6.80;;;22.40;58.30;;;;;;31257200;28;20058;-54
2021/09/27 20:48:44;;;;;;;12.85;5.97;;;22.50;57.40;;;;;;31251378;28;20058;-57
2021/09/27 21:03:47;;;;;;;9.38;4.95;;;22.30;56.50;;;;;;31181386;28;20046;-55
2021/09/27 21:18:49;;;;;;;11.02;5.82;;;22.30;56.60;;;;;;31130896;28;20065;-55
2021/09/27 21:33:51;;;;;;;8.00;3.80;;;22.30;56.30;;;;;;31250541;28;20046;-43
2021/09/27 21:48:53;;;;;;;10.43;4.80;;;22.20;56.30;;;;;;31250714;28;20046;-45
2021/09/27 22:03:55;;;;;;;12.68;3.45;;;22.30;56.20;;;;;;31251134;28;20046;-54
2021/09/27 22:18:57;;;;;;;8.73;3.83;;;22.20;56.40;;;;;;31266857;28;20053;-48
2021/09/27 22:34:01;;;;;;;7.70;3.90;;;22.30;56.00;;;;;;31266588;28;20049;-46
2021/09/27 22:49:03;;;;;;;8.40;3.83;;;22.30;56.00;;;;;;31269767;28;20070;-49
2021/09/27 23:04:05;;;;;;;7.60;3.65;;;22.20;56.00;;;;;;31260184;28;20121;-55
2021/09/27 23:19:07;;;;;;;9.85;3.40;;;22.10;56.20;;;;;;31261734;28;20057;-47
2021/09/27 23:34:09;;;;;;;5.85;3.30;;;22.10;56.00;;;;;;31259660;28;20104;-55
2021/09/27 23:49:11;;;;;;;8.93;3.72;;;22.00;55.90;;;;;;31254225;28;20088;-43
